Time;durP1;ratioP1;P1;durP2;ratioP2;P2;SDS_P1;SDS_P2;PMS_P1;PMS_P2;Temp;Humidity;BMP_temperature;BMP_pressure;BME280_temperature;BME280_humidity;BME280_pressure;Samples;Min_cycle;Max_cycle;Signal;HPM_P1;HPM_P2
2024/01/30 00:00:44;;;;;;;0.10;0.10;;;;;;;;;;5063762;28;20054;-79
2024/01/30 00:03:10;;;;;;;0.10;0.10;;;;;;;;;;5064212;28;20057;-79
2024/01/30 00:05:37;;;;;;;0.20;0.20;;;;;;;;;;5043643;28;20887;-79
2024/01/30 00:08:03;;;;;;;0.52;0.52;;;;;;;;;;5065519;28;20076;-79
2024/01/30 00:10:30;;;;;;;0.10;0.10;;;;;;;;;;5061133;28;20057;-79
2024/01/30 00:12:57;;;;;;;0.20;0.20;;;;;;;;;;5065168;28;20049;-79
2024/01/30 00:15:23;;;;;;;0.10;0.10;;;;;;;;;;5064827;28;20080;-79
2024/01/30 00:17:52;;;;;;;0.22;0.15;;;;;;;;;;5062058;28;20145;-79
2024/01/30 00:20:19;;;;;;;0.10;0.10;;;;;;;;;;5044073;28;20091;-79
2024/01/30 00:22:45;;;;;;;0.30;0.30;;;;;;;;;;5041574;28;20069;-79
2024/01/30 00:25:12;;;;;;;0.75;0.75;;;;;;;;;;5067477;28;20107;-79
2024/01/30 00:27:38;;;;;;;0.30;0.30;;;;;;;;;;5062299;28;20076;-79
2024/01/30 00:30:05;;;;;;;0.10;0.10;;;;;;;;;;5061823;28;20140;-79
2024/01/30 00:32:31;;;;;;;0.20;0.20;;;;;;;;;;5058485;28;20049;-80
2024/01/30 00:34:58;;;;;;;0.10;0.10;;;;;;;;;;5058907;28;20064;-79
2024/01/30 00:37:25;;;;;;;0.10;0.10;;;;;;;;;;5047296;28;20061;-79
2024/01/30 00:39:51;;;;;;;0.10;0.10;;;;;;;;;;5059035;28;20037;-78
2024/01/30 00:42:19;;;;;;;0.65;0.65;;;;;;;;;;5057168;28;20051;-79
2024/01/30 00:44:45;;;;;;;0.30;0.30;;;;;;;;;;5035128;28;20056;-78
2024/01/30 00:47:12;;;;;;;0.15;0.15;;;;;;;;;;5062605;28;20065;-79
2024/01/30 00:49:38;;;;;;;0.15;0.15;;;;;;;;;;5056560;28;20063;-78
2024/01/30 00:52:05;;;;;;;0.10;0.10;;;;;;;;;;5059327;28;20064;-79
2024/01/30 00:54:32;;;;;;;0.30;0.30;;;;;;;;;;5055263;28;20064;-79
2024/01/30 00:56:58;;;;;;;0.10;0.10;;;;;;;;;;5059255;28;20114;-79
2024/01/30 00:59:25;;;;;;;0.63;0.63;;;;;;;;;;5064353;28;20048;-79
2024/01/30 01:01:52;;;;;;;0.10;0.10;;;;;;;;;;5059257;28;20069;-79
2024/01/30 01:04:18;;;;;;;0.10;0.10;;;;;;;;;;5050467;28;20056;-79
2024/01/30 01:06:45;;;;;;;0.30;0.30;;;;;;;;;;5060059;28;20042;-79
2024/01/30 01:09:12;;;;;;;0.10;0.10;;;;;;;;;;5060361;28;20073;-79
2024/01/30 01:11:38;;;;;;;0.32;0.32;;;;;;;;;;5055552;28;20054;-79
2024/01/30 01:14:05;;;;;;;0.10;0.10;;;;;;;;;;5060338;28;20048;-79
2024/01/30 01:16:31;;;;;;;0.10;0.10;;;;;;;;;;5061432;28;20523;-79
2024/01/30 01:18:58;;;;;;;0.10;0.10;;;;;;;;;;5077393;22;20033;-77
2024/01/30 01:21:24;;;;;;;0.10;0.10;;;;;;;;;;5017518;28;20141;-77
2024/01/30 01:23:50;;;;;;;0.10;0.10;;;;;;;;;;5023154;28;20058;-77
2024/01/30 01:26:17;;;;;;;0.10;0.10;;;;;;;;;;5026330;28;20054;-77
2024/01/30 01:28:44;;;;;;;0.10;0.10;;;;;;;;;;5024714;28;20100;-77
2024/01/30 01:31:10;;;;;;;0.10;0.10;;;;;;;;;;5026606;28;20064;-77
2024/01/30 01:33:37;;;;;;;0.10;0.10;;;;;;;;;;5027063;28;20053;-77
2024/01/30 01:36:05;;;;;;;0.10;0.10;;;;;;;;;;5026539;28;20074;-77
2024/01/30 01:38:31;;;;;;;0.10;0.10;;;;;;;;;;5027083;28;20049;-77
2024/01/30 01:40:57;;;;;;;0.52;0.52;;;;;;;;;;5026693;28;20058;-77
2024/01/30 01:43:24;;;;;;;0.10;0.10;;;;;;;;;;5026368;28;20062;-77
2024/01/30 01:45:50;;;;;;;0.10;0.10;;;;;;;;;;5027401;28;20046;-77
2024/01/30 01:48:17;;;;;;;0.20;0.20;;;;;;;;;;5026648;28;20057;-77
2024/01/30 01:50:44;;;;;;;0.63;0.63;;;;;;;;;;5009458;28;20563;-77
2024/01/30 01:53:11;;;;;;;0.13;0.13;;;;;;;;;;5008665;28;20050;-77
2024/01/30 01:55:38;;;;;;;0.10;0.10;;;;;;;;;;5026993;28;20148;-77
2024/01/30 01:58:04;;;;;;;0.25;0.25;;;;;;;;;;5009572;28;20089;-77
2024/01/30 02:00:31;;;;;;;0.10;0.10;;;;;;;;;;5026126;28;20139;-77
2024/01/30 02:02:57;;;;;;;0.10;0.10;;;;;;;;;;5027132;28;20104;-77
2024/01/30 02:05:24;;;;;;;0.10;0.10;;;;;;;;;;5025482;28;20057;-76
2024/01/30 02:07:51;;;;;;;0.10;0.10;;;;;;;;;;5026465;28;20054;-77
2024/01/30 02:10:18;;;;;;;1.00;1.00;;;;;;;;;;5018569;28;20717;-77
2024/01/30 02:12:44;;;;;;;0.10;0.10;;;;;;;;;;5029956;28;20056;-77
2024/01/30 02:15:13;;;;;;;0.10;0.10;;;;;;;;;;5029953;28;20104;-77
2024/01/30 02:17:39;;;;;;;0.10;0.10;;;;;;;;;;5028874;28;20070;-77
2024/01/30 02:20:06;;;;;;;0.10;0.10;;;;;;;;;;5029735;28;20061;-77
2024/01/30 02:22:34;;;;;;;0.20;0.20;;;;;;;;;;5023707;28;20061;-77
2024/01/30 02:25:00;;;;;;;0.10;0.10;;;;;;;;;;5026674;28;20054;-77
2024/01/30 02:27:26;;;;;;;0.10;0.10;;;;;;;;;;5011575;28;20064;-77
2024/01/30 02:29:53;;;;;;;0.10;0.10;;;;;;;;;;5029915;28;20475;-77
2024/01/30 02:32:19;;;;;;;0.13;0.13;;;;;;;;;;5029031;28;20522;-77
2024/01/30 02:34:45;;;;;;;0.63;0.63;;;;;;;;;;5028745;28;20054;-77
2024/01/30 02:37:12;;;;;;;0.10;0.10;;;;;;;;;;5024915;28;20141;-77
2024/01/30 02:39:38;;;;;;;0.10;0.10;;;;;;;;;;5028950;28;20042;-77
2024/01/30 02:42:05;;;;;;;0.10;0.10;;;;;;;;;;5027998;28;20680;-77
2024/01/30 02:44:31;;;;;;;0.15;0.15;;;;;;;;;;5029043;28;20050;-77
2024/01/30 02:46:58;;;;;;;0.22;0.22;;;;;;;;;;5028613;28;20499;-77
2024/01/30 02:49:24;;;;;;;0.10;0.10;;;;;;;;;;5029166;28;20058;-77
2024/01/30 02:51:51;;;;;;;0.10;0.10;;;;;;;;;;5028919;28;20046;-77
2024/01/30 02:54:18;;;;;;;0.10;0.10;;;;;;;;;;5029254;28;20097;-77
2024/01/30 02:56:44;;;;;;;0.17;0.17;;;;;;;;;;5027098;28;20065;-77
2024/01/30 02:59:10;;;;;;;0.10;0.10;;;;;;;;;;5026220;28;20523;-77
2024/01/30 03:01:44;;;;;;;0.10;0.10;;;;;;;;;;5011466;28;20592;-77
2024/01/30 03:04:11;;;;;;;0.10;0.10;;;;;;;;;;5027836;28;20136;-77
2024/01/30 03:06:38;;;;;;;0.65;0.65;;;;;;;;;;5025759;28;20061;-77
2024/01/30 03:09:04;;;;;;;0.10;0.10;;;;;;;;;;5008656;28;20086;-76
2024/01/30 03:11:31;;;;;;;0.10;0.10;;;;;;;;;;5021046;28;20050;-77
2024/01/30 03:13:57;;;;;;;0.20;0.20;;;;;;;;;;5028110;28;20058;-77
2024/01/30 03:16:23;;;;;;;0.10;0.10;;;;;;;;;;5029221;28;20050;-77
2024/01/30 03:18:50;;;;;;;0.10;0.10;;;;;;;;;;5027721;28;20050;-77
2024/01/30 03:21:16;;;;;;;0.20;0.20;;;;;;;;;;5014040;28;20570;-77
2024/01/30 03:23:43;;;;;;;0.30;0.30;;;;;;;;;;5028571;28;20057;-77
2024/01/30 03:26:10;;;;;;;0.20;0.20;;;;;;;;;;5029047;28;20080;-77
2024/01/30 03:28:37;;;;;;;0.10;0.10;;;;;;;;;;5028660;28;20137;-77
2024/01/30 03:31:03;;;;;;;0.10;0.10;;;;;;;;;;5018132;28;20581;-77
2024/01/30 03:33:30;;;;;;;0.10;0.10;;;;;;;;;;5025061;28;20149;-77
2024/01/30 03:35:56;;;;;;;0.40;0.40;;;;;;;;;;5011484;28;20050;-77
2024/01/30 03:38:23;;;;;;;0.20;0.20;;;;;;;;;;5027880;28;20045;-77
2024/01/30 03:40:49;;;;;;;0.13;0.13;;;;;;;;;;5028291;28;20054;-77
2024/01/30 03:43:15;;;;;;;0.10;0.10;;;;;;;;;;5028759;28;20062;-77
2024/01/30 03:45:42;;;;;;;0.10;0.10;;;;;;;;;;5029273;28;20091;-77
2024/01/30 03:48:08;;;;;;;0.20;0.20;;;;;;;;;;5028150;28;20495;-77
2024/01/30 03:50:35;;;;;;;0.30;0.30;;;;;;;;;;5027760;28;20229;-77
2024/01/30 03:53:01;;;;;;;0.10;0.10;;;;;;;;;;5027968;28;20054;-77
2024/01/30 03:55:28;;;;;;;0.10;0.10;;;;;;;;;;5010967;28;20057;-77
2024/01/30 03:57:54;;;;;;;0.68;0.68;;;;;;;;;;5021764;28;20145;-77
2024/01/30 04:00:21;;;;;;;0.10;0.10;;;;;;;;;;5027135;28;20057;-77
2024/01/30 04:02:47;;;;;;;0.30;0.30;;;;;;;;;;5030205;28;20097;-77
2024/01/30 04:05:14;;;;;;;0.30;0.30;;;;;;;;;;5011323;28;20052;-76
2024/01/30 04:07:40;;;;;;;0.10;0.10;;;;;;;;;;5029110;28;20412;-76
2024/01/30 04:10:07;;;;;;;0.60;0.52;;;;;;;;;;5027371;28;20116;-77
2024/01/30 04:12:33;;;;;;;0.10;0.10;;;;;;;;;;5028680;28;20054;-77
2024/01/30 04:15:00;;;;;;;0.20;0.20;;;;;;;;;;5023281;28;20117;-75
2024/01/30 04:17:28;;;;;;;0.20;0.20;;;;;;;;;;5027480;28;20866;-77
2024/01/30 04:19:55;;;;;;;0.40;0.40;;;;;;;;;;5023992;28;20058;-77
2024/01/30 04:22:21;;;;;;;0.10;0.10;;;;;;;;;;5019637;28;20141;-76
2024/01/30 04:24:48;;;;;;;0.40;0.40;;;;;;;;;;5020322;28;20046;-77
2024/01/30 04:27:14;;;;;;;0.10;0.10;;;;;;;;;;5028406;28;20058;-77
2024/01/30 04:29:40;;;;;;;0.10;0.10;;;;;;;;;;5027249;28;20054;-76
2024/01/30 04:32:07;;;;;;;0.10;0.10;;;;;;;;;;5027967;28;20563;-77
2024/01/30 04:34:33;;;;;;;0.75;0.75;;;;;;;;;;5027728;28;20598;-76
2024/01/30 04:37:00;;;;;;;0.10;0.10;;;;;;;;;;5028834;28;20532;-74
2024/01/30 04:39:26;;;;;;;0.10;0.10;;;;;;;;;;5028193;28;20128;-77
2024/01/30 04:41:53;;;;;;;0.10;0.10;;;;;;;;;;5028031;28;20057;-77
2024/01/30 04:44:19;;;;;;;0.10;0.10;;;;;;;;;;5028523;28;20593;-77
2024/01/30 04:46:45;;;;;;;0.10;0.10;;;;;;;;;;5028202;28;20061;-77
2024/01/30 04:49:12;;;;;;;0.10;0.10;;;;;;;;;;5028169;28;20054;-77
2024/01/30 04:51:38;;;;;;;0.10;0.10;;;;;;;;;;5010078;28;20058;-77
2024/01/30 04:54:05;;;;;;;0.10;0.10;;;;;;;;;;5028904;28;20574;-76
2024/01/30 04:56:31;;;;;;;0.10;0.10;;;;;;;;;;5028202;28;20053;-77
2024/01/30 04:58:57;;;;;;;0.10;0.10;;;;;;;;;;5027967;28;20105;-76
2024/01/30 05:01:24;;;;;;;0.10;0.10;;;;;;;;;;5027716;28;20610;-76
2024/01/30 05:03:51;;;;;;;0.10;0.10;;;;;;;;;;5028156;28;20052;-76
2024/01/30 05:06:30;;;;;;;0.52;0.50;;;;;;;;;;5027906;28;20132;-76
2024/01/30 05:09:01;;;;;;;0.10;0.10;;;;;;;;;;5026714;28;20061;-76
2024/01/30 05:11:27;;;;;;;0.10;0.10;;;;;;;;;;5028301;28;20078;-76
2024/01/30 05:13:53;;;;;;;0.10;0.10;;;;;;;;;;5028287;28;20127;-76
2024/01/30 05:16:20;;;;;;;0.20;0.20;;;;;;;;;;5028510;28;20110;-76
2024/01/30 05:18:46;;;;;;;0.20;0.20;;;;;;;;;;5027373;28;20049;-74
2024/01/30 05:21:13;;;;;;;0.10;0.10;;;;;;;;;;5028486;28;20053;-76
2024/01/30 05:23:41;;;;;;;0.10;0.10;;;;;;;;;;5013235;28;20566;-77
2024/01/30 05:26:08;;;;;;;0.10;0.10;;;;;;;;;;5027005;28;20435;-77
2024/01/30 05:28:34;;;;;;;0.10;0.10;;;;;;;;;;5029610;28;20891;-77
2024/01/30 05:31:00;;;;;;;0.43;0.43;;;;;;;;;;5028567;28;20054;-77
2024/01/30 05:33:27;;;;;;;0.10;0.10;;;;;;;;;;5029574;28;20057;-77
2024/01/30 05:35:57;;;;;;;6.25;1.17;;;;;;;;;;5021318;28;20053;-77
2024/01/30 05:38:23;;;;;;;0.20;0.20;;;;;;;;;;5021963;28;20058;-77
2024/01/30 05:40:49;;;;;;;0.10;0.10;;;;;;;;;;5027996;28;20062;-77
2024/01/30 05:43:16;;;;;;;0.20;0.20;;;;;;;;;;5022881;28;20054;-74
2024/01/30 05:45:42;;;;;;;0.90;0.90;;;;;;;;;;5031255;28;20492;-75
2024/01/30 05:48:09;;;;;;;0.10;0.10;;;;;;;;;;5031614;28;20054;-77
2024/01/30 05:50:35;;;;;;;0.10;0.10;;;;;;;;;;5014038;28;20057;-76
2024/01/30 05:53:01;;;;;;;0.17;0.17;;;;;;;;;;5032370;28;20057;-77
2024/01/30 05:55:28;;;;;;;0.10;0.10;;;;;;;;;;5031751;28;20068;-76
2024/01/30 05:57:55;;;;;;;0.20;0.20;;;;;;;;;;5030157;28;20054;-77
2024/01/30 06:00:21;;;;;;;1.13;0.43;;;;;;;;;;5031961;28;20072;-76
2024/01/30 06:02:47;;;;;;;0.45;0.45;;;;;;;;;;5030268;28;20050;-76
2024/01/30 06:05:14;;;;;;;0.43;0.43;;;;;;;;;;5031081;28;20085;-77
2024/01/30 06:07:40;;;;;;;2.20;0.80;;;;;;;;;;5030761;28;20514;-77
2024/01/30 06:10:08;;;;;;;0.30;0.30;;;;;;;;;;5028009;28;21022;-76
2024/01/30 06:12:35;;;;;;;0.20;0.20;;;;;;;;;;5030268;28;20056;-77
2024/01/30 06:15:02;;;;;;;0.20;0.20;;;;;;;;;;5031053;28;20147;-74
2024/01/30 06:17:28;;;;;;;0.28;0.28;;;;;;;;;;5032476;28;20118;-76
2024/01/30 06:19:55;;;;;;;0.13;0.13;;;;;;;;;;5031501;28;20058;-77
2024/01/30 06:22:21;;;;;;;0.20;0.20;;;;;;;;;;5031219;28;20548;-77
2024/01/30 06:24:48;;;;;;;0.10;0.10;;;;;;;;;;5023753;28;20599;-77
2024/01/30 06:27:15;;;;;;;0.10;0.10;;;;;;;;;;5030427;28;20056;-75
2024/01/30 06:29:42;;;;;;;0.10;0.10;;;;;;;;;;5025636;28;20054;-76
2024/01/30 06:32:09;;;;;;;0.10;0.10;;;;;;;;;;5029644;28;20058;-75
2024/01/30 06:34:36;;;;;;;0.10;0.10;;;;;;;;;;5031582;28;20512;-77
2024/01/30 06:37:02;;;;;;;3.38;1.58;;;;;;;;;;5031436;28;20141;-77
2024/01/30 06:39:29;;;;;;;0.10;0.10;;;;;;;;;;5030921;28;20608;-77
2024/01/30 06:41:55;;;;;;;0.10;0.10;;;;;;;;;;5024997;28;20119;-74
2024/01/30 06:44:22;;;;;;;0.10;0.10;;;;;;;;;;5030339;28;20945;-76
2024/01/30 06:46:48;;;;;;;0.50;0.50;;;;;;;;;;5030583;28;20061;-77
2024/01/30 06:49:14;;;;;;;0.10;0.10;;;;;;;;;;5027619;28;20082;-77
2024/01/30 06:51:41;;;;;;;0.10;0.10;;;;;;;;;;5030810;28;20053;-76
2024/01/30 06:54:08;;;;;;;0.80;0.80;;;;;;;;;;5009316;28;20491;-78
2024/01/30 06:56:35;;;;;;;0.20;0.20;;;;;;;;;;5027598;28;20038;-76
2024/01/30 06:59:02;;;;;;;1.85;1.75;;;;;;;;;;5026945;28;20054;-75
2024/01/30 07:01:29;;;;;;;0.10;0.10;;;;;;;;;;5005775;28;20053;-76
2024/01/30 07:03:56;;;;;;;0.20;0.20;;;;;;;;;;5027010;28;20050;-74
2024/01/30 07:06:22;;;;;;;1.25;1.15;;;;;;;;;;5021802;28;20054;-77
2024/01/30 07:08:49;;;;;;;0.10;0.10;;;;;;;;;;5024331;28;22620;-74
2024/01/30 07:11:23;;;;;;;0.60;0.52;;;;;;;;;;5027044;28;20058;-76
2024/01/30 07:13:50;;;;;;;0.93;0.68;;;;;;;;;;5028048;28;20050;-77
2024/01/30 07:16:17;;;;;;;0.10;0.10;;;;;;;;;;5031388;28;20562;-77
2024/01/30 07:18:43;;;;;;;0.32;0.32;;;;;;;;;;5021967;28;20061;-74
2024/01/30 07:21:10;;;;;;;0.10;0.10;;;;;;;;;;5027665;28;20229;-75
2024/01/30 07:23:38;;;;;;;1.13;1.10;;;;;;;;;;5025117;28;20113;-77
2024/01/30 07:26:06;;;;;;;0.20;0.20;;;;;;;;;;5027366;28;20058;-77
2024/01/30 07:28:33;;;;;;;0.10;0.10;;;;;;;;;;5030490;28;20061;-77
2024/01/30 07:31:00;;;;;;;0.10;0.10;;;;;;;;;;5029791;28;20505;-75
2024/01/30 07:33:26;;;;;;;0.10;0.10;;;;;;;;;;5025176;28;20057;-74
2024/01/30 07:35:53;;;;;;;0.10;0.10;;;;;;;;;;5025954;28;20053;-76
2024/01/30 07:38:19;;;;;;;0.10;0.10;;;;;;;;;;5007471;28;20054;-76
2024/01/30 07:40:46;;;;;;;0.10;0.10;;;;;;;;;;5028182;28;20057;-75
2024/01/30 07:43:12;;;;;;;0.10;0.10;;;;;;;;;;5028808;28;20050;-76
2024/01/30 07:45:39;;;;;;;0.10;0.10;;;;;;;;;;5027814;28;20065;-75
2024/01/30 07:48:05;;;;;;;0.10;0.10;;;;;;;;;;5026395;28;20074;-75
2024/01/30 07:50:32;;;;;;;4.25;1.58;;;;;;;;;;5024047;28;20105;-75
2024/01/30 07:52:59;;;;;;;0.10;0.10;;;;;;;;;;5024595;28;20057;-75
2024/01/30 07:55:28;;;;;;;0.10;0.10;;;;;;;;;;5019863;28;20051;-74
2024/01/30 07:57:55;;;;;;;0.10;0.10;;;;;;;;;;5003940;28;20656;-75
2024/01/30 08:00:22;;;;;;;0.10;0.10;;;;;;;;;;5022780;28;20046;-72
2024/01/30 08:02:55;;;;;;;0.10;0.10;;;;;;;;;;5025359;28;20058;-74
2024/01/30 08:05:22;;;;;;;0.10;0.10;;;;;;;;;;5030013;28;20112;-75
2024/01/30 08:07:50;;;;;;;0.10;0.10;;;;;;;;;;5026503;28;20385;-76
2024/01/30 08:10:19;;;;;;;0.10;0.10;;;;;;;;;;5023618;28;20089;-74
2024/01/30 08:12:46;;;;;;;0.10;0.10;;;;;;;;;;5006479;28;20062;-74
2024/01/30 08:15:13;;;;;;;0.30;0.30;;;;;;;;;;5024519;28;20046;-74
2024/01/30 08:17:39;;;;;;;0.15;0.15;;;;;;;;;;5031211;28;20057;-76
2024/01/30 08:20:08;;;;;;;0.10;0.10;;;;;;;;;;5024209;28;20117;-77
2024/01/30 08:22:34;;;;;;;0.10;0.10;;;;;;;;;;5027365;28;20053;-75
2024/01/30 08:25:01;;;;;;;0.10;0.10;;;;;;;;;;5025864;28;20162;-77
2024/01/30 08:27:28;;;;;;;0.13;0.13;;;;;;;;;;5027192;28;20831;-77
2024/01/30 08:29:54;;;;;;;0.10;0.10;;;;;;;;;;5025996;28;20497;-76
2024/01/30 08:32:20;;;;;;;0.10;0.10;;;;;;;;;;5008744;28;20108;-76
2024/01/30 08:34:47;;;;;;;0.52;0.43;;;;;;;;;;5004614;28;20146;-79
2024/01/30 08:37:16;;;;;;;0.65;0.65;;;;;;;;;;5028986;28;20643;-78
2024/01/30 08:39:43;;;;;;;0.60;0.60;;;;;;;;;;5028017;28;20129;-78
2024/01/30 08:42:10;;;;;;;2.03;0.32;;;;;;;;;;5025507;28;20089;-79
2024/01/30 08:44:36;;;;;;;0.10;0.10;;;;;;;;;;5023326;28;20877;-77
2024/01/30 08:47:03;;;;;;;0.10;0.10;;;;;;;;;;5025946;28;20834;-77
2024/01/30 08:49:29;;;;;;;0.47;0.40;;;;;;;;;;5020021;28;20086;-79
2024/01/30 08:51:56;;;;;;;0.10;0.10;;;;;;;;;;5026467;28;20050;-79
2024/01/30 08:54:23;;;;;;;0.10;0.10;;;;;;;;;;5019120;28;20053;-77
2024/01/30 08:56:52;;;;;;;0.10;0.10;;;;;;;;;;5029485;28;20058;-80
2024/01/30 08:59:18;;;;;;;0.10;0.10;;;;;;;;;;5010109;28;20057;-79
2024/01/30 09:01:46;;;;;;;0.10;0.10;;;;;;;;;;5029900;28;21029;-80
2024/01/30 09:04:28;;;;;;;0.10;0.10;;;;;;;;;;5025295;28;20104;-80
2024/01/30 09:06:55;;;;;;;0.10;0.10;;;;;;;;;;5030699;28;20050;-80
2024/01/30 09:09:21;;;;;;;0.28;0.28;;;;;;;;;;5027370;28;20054;-80
2024/01/30 09:11:48;;;;;;;0.60;0.60;;;;;;;;;;5021176;28;20057;-78
2024/01/30 09:14:14;;;;;;;0.80;0.45;;;;;;;;;;5016979;28;20054;-80
2024/01/30 09:16:41;;;;;;;0.10;0.10;;;;;;;;;;5028342;28;20424;-80
2024/01/30 09:19:07;;;;;;;0.30;0.30;;;;;;;;;;5028155;28;20101;-77
2024/01/30 09:21:34;;;;;;;0.10;0.10;;;;;;;;;;5031525;28;20599;-80
2024/01/30 09:24:03;;;;;;;0.10;0.10;;;;;;;;;;5016449;28;20062;-80
2024/01/30 09:26:30;;;;;;;0.73;0.73;;;;;;;;;;5022934;28;20061;-80
2024/01/30 09:28:56;;;;;;;0.17;0.17;;;;;;;;;;5032101;28;20045;-80
2024/01/30 09:31:23;;;;;;;0.30;0.30;;;;;;;;;;5033085;28;20073;-78
2024/01/30 09:33:51;;;;;;;0.30;0.30;;;;;;;;;;5030519;28;20539;-80
2024/01/30 09:36:19;;;;;;;0.35;0.35;;;;;;;;;;5031364;28;20614;-79
2024/01/30 09:38:46;;;;;;;0.10;0.10;;;;;;;;;;5028701;28;20053;-80
2024/01/30 09:41:12;;;;;;;0.10;0.10;;;;;;;;;;5031034;28;20049;-77
2024/01/30 09:43:40;;;;;;;0.20;0.20;;;;;;;;;;5025837;28;20934;-80
2024/01/30 09:46:07;;;;;;;0.10;0.10;;;;;;;;;;5026407;28;20053;-78
2024/01/30 09:48:34;;;;;;;0.10;0.10;;;;;;;;;;5026855;28;20137;-77
2024/01/30 09:51:02;;;;;;;0.38;0.38;;;;;;;;;;5031167;28;20093;-79
2024/01/30 09:53:28;;;;;;;0.10;0.10;;;;;;;;;;5032510;28;20058;-78
2024/01/30 09:55:55;;;;;;;0.10;0.10;;;;;;;;;;5030896;28;20053;-79
2024/01/30 09:58:21;;;;;;;0.10;0.10;;;;;;;;;;5033897;28;20082;-77
2024/01/30 10:00:48;;;;;;;0.32;0.32;;;;;;;;;;5030964;28;20535;-80
2024/01/30 10:03:14;;;;;;;0.10;0.10;;;;;;;;;;5031216;28;20056;-81
2024/01/30 10:05:44;;;;;;;0.30;0.25;;;;;;;;;;5027949;28;20796;-80
2024/01/30 10:08:10;;;;;;;0.45;0.45;;;;;;;;;;5032327;28;20038;-80
2024/01/30 10:10:37;;;;;;;0.10;0.10;;;;;;;;;;5023732;28;20057;-78
2024/01/30 10:13:04;;;;;;;0.70;0.70;;;;;;;;;;5027226;28;20135;-78
2024/01/30 10:15:31;;;;;;;0.20;0.20;;;;;;;;;;5029771;28;20089;-80
2024/01/30 10:17:58;;;;;;;0.20;0.20;;;;;;;;;;5030864;28;20060;-78
2024/01/30 10:20:25;;;;;;;0.20;0.20;;;;;;;;;;5030293;28;20050;-79
2024/01/30 10:22:51;;;;;;;0.32;0.32;;;;;;;;;;5031594;28;20061;-80
2024/01/30 10:25:19;;;;;;;0.13;0.13;;;;;;;;;;5025490;28;20697;-76
2024/01/30 10:27:46;;;;;;;0.30;0.30;;;;;;;;;;5030445;28;20536;-78
2024/01/30 10:30:13;;;;;;;0.40;0.40;;;;;;;;;;5015366;28;20558;-77
2024/01/30 10:32:40;;;;;;;1.48;0.93;;;;;;;;;;5014292;28;20107;-79
2024/01/30 10:35:06;;;;;;;0.45;0.45;;;;;;;;;;5026638;28;20042;-79
2024/01/30 10:37:33;;;;;;;0.40;0.40;;;;;;;;;;5027453;28;20144;-80
2024/01/30 10:40:03;;;;;;;0.10;0.10;;;;;;;;;;5030688;28;20061;-80
2024/01/30 10:42:31;;;;;;;0.20;0.20;;;;;;;;;;5016257;28;20054;-80
2024/01/30 10:45:15;;;;;;;0.17;0.17;;;;;;;;;;5026829;28;20054;-80
2024/01/30 10:47:52;;;;;;;2.60;0.40;;;;;;;;;;5024533;28;20058;-79
2024/01/30 10:50:19;;;;;;;0.75;0.28;;;;;;;;;;5030495;28;20561;-81
2024/01/30 10:52:47;;;;;;;0.93;0.93;;;;;;;;;;5029945;28;20449;-79
2024/01/30 10:55:13;;;;;;;0.10;0.10;;;;;;;;;;5028717;28;20045;-79
2024/01/30 10:57:40;;;;;;;0.13;0.13;;;;;;;;;;5029700;28;20060;-79
2024/01/30 11:00:15;;;;;;;0.43;0.35;;;;;;;;;;5031505;28;20046;-80
2024/01/30 11:02:43;;;;;;;0.10;0.10;;;;;;;;;;5031143;28;20037;-81
2024/01/30 11:05:10;;;;;;;0.17;0.17;;;;;;;;;;5028666;28;20137;-82
2024/01/30 11:07:38;;;;;;;0.17;0.17;;;;;;;;;;5025738;28;20050;-81
2024/01/30 11:10:08;;;;;;;0.35;0.30;;;;;;;;;;5023904;28;20058;-80
2024/01/30 11:12:40;;;;;;;0.10;0.10;;;;;;;;;;5015199;28;20256;-81
2024/01/30 11:15:11;;;;;;;0.30;0.30;;;;;;;;;;5018905;28;20117;-81
2024/01/30 11:17:47;;;;;;;0.35;0.35;;;;;;;;;;5029715;28;20972;-80
2024/01/30 11:20:20;;;;;;;0.25;0.25;;;;;;;;;;5027601;28;20539;-78
2024/01/30 11:22:47;;;;;;;0.20;0.20;;;;;;;;;;5032709;28;20112;-81
2024/01/30 11:25:14;;;;;;;0.10;0.10;;;;;;;;;;5032734;28;20058;-80
2024/01/30 11:27:41;;;;;;;0.55;0.55;;;;;;;;;;5031958;28;20102;-82
2024/01/30 11:30:08;;;;;;;0.30;0.30;;;;;;;;;;5032312;28;20054;-82
2024/01/30 11:32:34;;;;;;;0.25;0.25;;;;;;;;;;5031379;28;20057;-78
2024/01/30 11:35:03;;;;;;;0.10;0.10;;;;;;;;;;5026640;28;20038;-80
2024/01/30 11:37:30;;;;;;;0.10;0.10;;;;;;;;;;5031606;28;20170;-81
2024/01/30 11:39:58;;;;;;;0.15;0.15;;;;;;;;;;5030271;28;20054;-81
2024/01/30 11:42:25;;;;;;;0.10;0.10;;;;;;;;;;5033238;28;20081;-81
2024/01/30 11:44:51;;;;;;;0.15;0.15;;;;;;;;;;5032095;28;20488;-81
2024/01/30 11:47:18;;;;;;;0.10;0.10;;;;;;;;;;5030026;28;20090;-81
2024/01/30 11:49:45;;;;;;;0.10;0.10;;;;;;;;;;5031403;28;20034;-81
2024/01/30 11:52:11;;;;;;;0.10;0.10;;;;;;;;;;5030787;28;21965;-79
2024/01/30 11:54:39;;;;;;;0.10;0.10;;;;;;;;;;5030253;28;20054;-80
2024/01/30 11:57:06;;;;;;;0.38;0.38;;;;;;;;;;5029654;28;21037;-81
2024/01/30 11:59:32;;;;;;;0.30;0.30;;;;;;;;;;5026199;28;20061;-81
2024/01/30 12:01:59;;;;;;;0.10;0.10;;;;;;;;;;5025032;28;20054;-79
2024/01/30 12:04:28;;;;;;;0.10;0.10;;;;;;;;;;5027558;28;20409;-81
2024/01/30 12:06:54;;;;;;;0.13;0.13;;;;;;;;;;5021057;28;20057;-80
2024/01/30 12:09:21;;;;;;;0.10;0.10;;;;;;;;;;5030070;28;20524;-81
2024/01/30 12:11:49;;;;;;;0.10;0.10;;;;;;;;;;5021241;28;20050;-81
2024/01/30 12:14:16;;;;;;;0.10;0.10;;;;;;;;;;5027941;28;20051;-81
2024/01/30 12:16:43;;;;;;;0.10;0.10;;;;;;;;;;5026554;28;20058;-80
2024/01/30 12:19:09;;;;;;;0.10;0.10;;;;;;;;;;5019370;28;20089;-81
2024/01/30 12:21:37;;;;;;;0.10;0.10;;;;;;;;;;5026793;28;20875;-81
2024/01/30 12:24:04;;;;;;;0.10;0.10;;;;;;;;;;5018935;28;20089;-79
2024/01/30 12:26:31;;;;;;;0.25;0.25;;;;;;;;;;5031901;28;20068;-81
2024/01/30 12:29:01;;;;;;;0.10;0.10;;;;;;;;;;5031205;28;20037;-81
2024/01/30 12:31:28;;;;;;;0.10;0.10;;;;;;;;;;5026354;28;20100;-79
2024/01/30 12:33:55;;;;;;;0.10;0.10;;;;;;;;;;5022840;28;20055;-81
2024/01/30 12:36:22;;;;;;;0.10;0.10;;;;;;;;;;5016425;28;20054;-81
2024/01/30 12:38:49;;;;;;;0.10;0.10;;;;;;;;;;5023672;28;20097;-80
2024/01/30 12:41:16;;;;;;;0.10;0.10;;;;;;;;;;5027080;28;20038;-81
2024/01/30 12:43:43;;;;;;;0.10;0.10;;;;;;;;;;5029330;28;20132;-80
2024/01/30 12:46:09;;;;;;;0.10;0.10;;;;;;;;;;5033524;28;20061;-79
2024/01/30 12:48:36;;;;;;;0.10;0.10;;;;;;;;;;5030698;28;20041;-81
2024/01/30 12:51:02;;;;;;;0.10;0.10;;;;;;;;;;5029853;28;20496;-81
2024/01/30 12:53:29;;;;;;;0.32;0.25;;;;;;;;;;5030732;28;20077;-80
2024/01/30 12:55:55;;;;;;;0.08;0.08;;;;;;;;;;5033962;28;20515;-81
2024/01/30 12:58:22;;;;;;;0.10;0.10;;;;;;;;;;5031295;28;20118;-81
2024/01/30 13:00:48;;;;;;;0.20;0.20;;;;;;;;;;5023368;28;20057;-81
2024/01/30 13:03:15;;;;;;;0.10;0.10;;;;;;;;;;5030286;28;20058;-81
2024/01/30 13:05:42;;;;;;;0.10;0.10;;;;;;;;;;5022232;28;20054;-80
2024/01/30 13:08:09;;;;;;;0.10;0.10;;;;;;;;;;5024686;28;20516;-81
2024/01/30 13:10:35;;;;;;;0.30;0.30;;;;;;;;;;5022361;28;20082;-80
2024/01/30 13:13:02;;;;;;;0.10;0.10;;;;;;;;;;5025506;28;20042;-82
2024/01/30 13:15:29;;;;;;;2.75;0.70;;;;;;;;;;5018080;28;20042;-80
2024/01/30 13:17:55;;;;;;;0.28;0.28;;;;;;;;;;5019168;28;20085;-81
2024/01/30 13:20:22;;;;;;;0.25;0.25;;;;;;;;;;5030494;28;20141;-81
2024/01/30 13:22:49;;;;;;;0.10;0.10;;;;;;;;;;5030582;28;20058;-81
2024/01/30 13:25:16;;;;;;;0.10;0.10;;;;;;;;;;5029056;28;20065;-80
2024/01/30 13:27:42;;;;;;;0.10;0.10;;;;;;;;;;5023365;28;20050;-82
2024/01/30 13:30:09;;;;;;;0.15;0.15;;;;;;;;;;5019303;28;21019;-82
2024/01/30 13:32:36;;;;;;;0.10;0.10;;;;;;;;;;5002478;28;20055;-81
2024/01/30 13:35:03;;;;;;;0.10;0.10;;;;;;;;;;5026450;28;20058;-81
2024/01/30 13:37:29;;;;;;;0.10;0.10;;;;;;;;;;5030004;28;20148;-79
2024/01/30 13:39:56;;;;;;;0.20;0.20;;;;;;;;;;5010411;28;20104;-81
2024/01/30 13:42:23;;;;;;;0.45;0.45;;;;;;;;;;5028845;28;20058;-82
2024/01/30 13:44:50;;;;;;;0.10;0.10;;;;;;;;;;5030203;28;20050;-82
2024/01/30 13:47:18;;;;;;;1.30;0.85;;;;;;;;;;5029733;28;20046;-82
2024/01/30 13:49:45;;;;;;;0.10;0.10;;;;;;;;;;5023336;28;20053;-80
2024/01/30 13:52:11;;;;;;;0.10;0.10;;;;;;;;;;5024950;28;20042;-82
2024/01/30 13:54:38;;;;;;;0.10;0.10;;;;;;;;;;5019356;28;20054;-82
2024/01/30 13:57:05;;;;;;;0.10;0.10;;;;;;;;;;5019144;28;20056;-79
2024/01/30 13:59:31;;;;;;;0.10;0.10;;;;;;;;;;5025540;28;20050;-82
2024/01/30 14:01:58;;;;;;;0.10;0.10;;;;;;;;;;5030342;28;20054;-81
2024/01/30 14:04:24;;;;;;;0.10;0.10;;;;;;;;;;5031400;28;20104;-82
2024/01/30 14:06:51;;;;;;;0.10;0.10;;;;;;;;;;5110577;22;20046;-78
2024/01/30 14:09:29;;;;;;;0.10;0.10;;;;;;;;;;5043557;28;20787;-79
2024/01/30 14:11:56;;;;;;;0.10;0.10;;;;;;;;;;5054003;28;20053;-78
2024/01/30 14:14:23;;;;;;;0.10;0.10;;;;;;;;;;5043745;28;20045;-78
2024/01/30 14:16:49;;;;;;;0.10;0.10;;;;;;;;;;5036527;28;20054;-78
2024/01/30 14:19:16;;;;;;;0.10;0.10;;;;;;;;;;5024796;28;20527;-78
2024/01/30 14:21:45;;;;;;;0.10;0.10;;;;;;;;;;5045431;28;20558;-78
2024/01/30 14:24:11;;;;;;;0.10;0.10;;;;;;;;;;5025394;28;20143;-78
2024/01/30 14:26:37;;;;;;;0.10;0.10;;;;;;;;;;5043607;28;20061;-78
2024/01/30 14:29:04;;;;;;;0.32;0.32;;;;;;;;;;5051186;28;20064;-78
2024/01/30 14:31:30;;;;;;;0.10;0.10;;;;;;;;;;5030386;28;20061;-78
2024/01/30 14:33:57;;;;;;;0.10;0.10;;;;;;;;;;5024604;28;20050;-78
2024/01/30 14:36:27;;;;;;;0.10;0.10;;;;;;;;;;5039090;28;20057;-78
2024/01/30 14:38:54;;;;;;;0.10;0.10;;;;;;;;;;5041912;28;20100;-78
2024/01/30 14:41:21;;;;;;;0.10;0.10;;;;;;;;;;5026613;28;20128;-79